Brisbane - Nearby METAR Reports

YBBN - Brisbane Intl Ar, Australia
Distance from station: NNE 11km
Updated: 20/09/2021 12:30
Clear
Clear
 Wind from NNE
Wind: NNE 35 km/h
Temperature: 23°C
Dew Point: 16°C
Humidity: 65%
Barometer: 1016 hPa
Summary: Clear
Visibility: greater than 10 km
2021/09/20 02:30 YBBN 200230Z 03019KT CAVOK 23/16 Q1016
YAMB - Amberley, Australia
Distance from station: WSW 42km
Updated: 20/09/2021 12:30
Few Clouds
Few Clouds
 Wind from NW
Wind: NW 22 km/h
Temperature: 30°C
Dew Point: 13°C
Humidity: 35%
Barometer: 1014 hPa
Clouds: Few Clouds
Visibility: 10 km
Cloud details: Few Clouds 1219 m
2021/09/20 02:30 YAMB 200230Z 32012KT 9999 FEW040 30/13 Q1014
 
YBCG - Coolangatta Aws, Australia
Distance from station: SSE 102km
Updated: 20/09/2021 12:30
Clear
Clear
 Wind from N
Wind: N 39 km/h
Temperature: 25°C
Dew Point: 13°C
Humidity: 47%
Barometer: 1015 hPa
Clouds: Clear
Visibility: 10 km
2021/09/20 02:30 YBCG 200230Z AUTO 36021KT 9999 // NCD 25/13 Q1015 RF00.0/000.0